sensor_id;sensor_type;location;lat;lon;timestamp;P1;durP1;ratioP1;P2;durP2;ratioP2
17261;SDS011;9873;52.236;21.002;2023-09-19T00:08:35;13.57;;;10.98;;
17261;SDS011;9873;52.236;21.002;2023-09-19T00:18:39;11.10;;;9.43;;
17261;SDS011;9873;52.236;21.002;2023-09-19T00:28:42;13.57;;;9.85;;
17261;SDS011;9873;52.236;21.002;2023-09-19T00:38:47;15.40;;;11.63;;
17261;SDS011;9873;52.236;21.002;2023-09-19T00:48:49;13.23;;;9.82;;
17261;SDS011;9873;52.236;21.002;2023-09-19T00:58:54;14.43;;;11.05;;
17261;SDS011;9873;52.236;21.002;2023-09-19T01:08:59;15.10;;;11.32;;
17261;SDS011;9873;52.236;21.002;2023-09-19T01:19:12;14.73;;;10.55;;
17261;SDS011;9873;52.236;21.002;2023-09-19T01:29:42;14.23;;;12.52;;
17261;SDS011;9873;52.236;21.002;2023-09-19T01:39:58;14.07;;;10.20;;
17261;SDS011;9873;52.236;21.002;2023-09-19T02:00:45;14.80;;;11.23;;
17261;SDS011;9873;52.236;21.002;2023-09-19T02:10:51;15.23;;;10.43;;
17261;SDS011;9873;52.236;21.002;2023-09-19T02:20:57;15.95;;;10.98;;
17261;SDS011;9873;52.236;21.002;2023-09-19T02:31:01;14.52;;;11.07;;
17261;SDS011;9873;52.236;21.002;2023-09-19T02:41:04;15.43;;;12.43;;
17261;SDS011;9873;52.236;21.002;2023-09-19T02:51:11;15.52;;;13.23;;
17261;SDS011;9873;52.236;21.002;2023-09-19T03:01:18;15.05;;;11.43;;
17261;SDS011;9873;52.236;21.002;2023-09-19T03:11:26;14.95;;;11.98;;
17261;SDS011;9873;52.236;21.002;2023-09-19T03:21:31;16.25;;;10.65;;
17261;SDS011;9873;52.236;21.002;2023-09-19T03:31:34;15.35;;;11.95;;
17261;SDS011;9873;52.236;21.002;2023-09-19T03:41:44;17.25;;;11.38;;
17261;SDS011;9873;52.236;21.002;2023-09-19T03:51:47;15.57;;;11.95;;
17261;SDS011;9873;52.236;21.002;2023-09-19T04:01:52;13.18;;;11.07;;
17261;SDS011;9873;52.236;21.002;2023-09-19T04:11:58;15.35;;;11.70;;
17261;SDS011;9873;52.236;21.002;2023-09-19T04:22:00;15.85;;;11.90;;
17261;SDS011;9873;52.236;21.002;2023-09-19T04:32:08;13.00;;;10.68;;
17261;SDS011;9873;52.236;21.002;2023-09-19T04:42:12;18.20;;;11.27;;
17261;SDS011;9873;52.236;21.002;2023-09-19T04:52:19;16.33;;;12.20;;
17261;SDS011;9873;52.236;21.002;2023-09-19T05:02:22;12.25;;;10.30;;
17261;SDS011;9873;52.236;21.002;2023-09-19T05:12:25;19.40;;;12.02;;
17261;SDS011;9873;52.236;21.002;2023-09-19T05:22:30;15.07;;;9.57;;
17261;SDS011;9873;52.236;21.002;2023-09-19T05:32:35;12.65;;;9.75;;
17261;SDS011;9873;52.236;21.002;2023-09-19T05:42:40;15.45;;;10.15;;
17261;SDS011;9873;52.236;21.002;2023-09-19T05:52:43;13.15;;;9.05;;
17261;SDS011;9873;52.236;21.002;2023-09-19T06:12:56;11.88;;;9.18;;
17261;SDS011;9873;52.236;21.002;2023-09-19T06:23:00;11.25;;;9.05;;
17261;SDS011;9873;52.236;21.002;2023-09-19T06:33:06;12.93;;;8.45;;
17261;SDS011;9873;52.236;21.002;2023-09-19T06:43:12;10.20;;;8.48;;
17261;SDS011;9873;52.236;21.002;2023-09-19T06:53:18;11.02;;;8.32;;
17261;SDS011;9873;52.236;21.002;2023-09-19T07:03:20;13.73;;;8.95;;
17261;SDS011;9873;52.236;21.002;2023-09-19T07:13:25;14.65;;;8.48;;
17261;SDS011;9873;52.236;21.002;2023-09-19T07:23:28;12.23;;;8.60;;
17261;SDS011;9873;52.236;21.002;2023-09-19T07:33:34;15.82;;;9.60;;
17261;SDS011;9873;52.236;21.002;2023-09-19T07:43:40;16.33;;;9.85;;
17261;SDS011;9873;52.236;21.002;2023-09-19T07:53:42;12.05;;;9.25;;
17261;SDS011;9873;52.236;21.002;2023-09-19T08:03:50;19.33;;;11.38;;
17261;SDS011;9873;52.236;21.002;2023-09-19T08:13:54;14.45;;;10.25;;
17261;SDS011;9873;52.236;21.002;2023-09-19T08:23:57;18.10;;;11.13;;
17261;SDS011;9873;52.236;21.002;2023-09-19T08:33:59;13.82;;;11.20;;
17261;SDS011;9873;52.236;21.002;2023-09-19T08:44:04;14.20;;;10.48;;
17261;SDS011;9873;52.236;21.002;2023-09-19T08:54:14;11.80;;;8.82;;
17261;SDS011;9873;52.236;21.002;2023-09-19T09:04:20;11.30;;;9.68;;
17261;SDS011;9873;52.236;21.002;2023-09-19T09:14:25;12.20;;;8.32;;
17261;SDS011;9873;52.236;21.002;2023-09-19T09:24:33;10.27;;;7.38;;
17261;SDS011;9873;52.236;21.002;2023-09-19T09:34:45;8.57;;;5.38;;
17261;SDS011;9873;52.236;21.002;2023-09-19T09:45:25;10.88;;;6.95;;
17261;SDS011;9873;52.236;21.002;2023-09-19T09:55:56;10.52;;;8.57;;
17261;SDS011;9873;52.236;21.002;2023-09-19T10:06:01;14.82;;;10.43;;
17261;SDS011;9873;52.236;21.002;2023-09-19T10:16:22;15.10;;;10.07;;
17261;SDS011;9873;52.236;21.002;2023-09-19T10:26:31;17.75;;;10.38;;
17261;SDS011;9873;52.236;21.002;2023-09-19T10:36:38;13.23;;;9.55;;
17261;SDS011;9873;52.236;21.002;2023-09-19T10:46:49;13.63;;;8.15;;
17261;SDS011;9873;52.236;21.002;2023-09-19T10:56:53;10.05;;;7.57;;
17261;SDS011;9873;52.236;21.002;2023-09-19T11:27:49;8.48;;;6.35;;
17261;SDS011;9873;52.236;21.002;2023-09-19T11:48:47;7.57;;;6.60;;
17261;SDS011;9873;52.236;21.002;2023-09-19T11:58:54;11.10;;;7.00;;
17261;SDS011;9873;52.236;21.002;2023-09-19T12:09:02;8.90;;;7.30;;
17261;SDS011;9873;52.236;21.002;2023-09-19T12:19:20;8.82;;;7.13;;
17261;SDS011;9873;52.236;21.002;2023-09-19T12:29:24;9.35;;;7.47;;
17261;SDS011;9873;52.236;21.002;2023-09-19T12:39:30;12.93;;;8.25;;
17261;SDS011;9873;52.236;21.002;2023-09-19T12:49:36;9.45;;;7.88;;
17261;SDS011;9873;52.236;21.002;2023-09-19T12:59:41;10.68;;;6.93;;
17261;SDS011;9873;52.236;21.002;2023-09-19T13:10:01;11.00;;;7.65;;
17261;SDS011;9873;52.236;21.002;2023-09-19T13:20:19;13.05;;;7.72;;
17261;SDS011;9873;52.236;21.002;2023-09-19T13:30:36;11.90;;;8.27;;
17261;SDS011;9873;52.236;21.002;2023-09-19T13:40:44;9.80;;;8.00;;
17261;SDS011;9873;52.236;21.002;2023-09-19T13:50:47;13.70;;;9.00;;
17261;SDS011;9873;52.236;21.002;2023-09-19T14:00:50;11.10;;;8.18;;
17261;SDS011;9873;52.236;21.002;2023-09-19T14:10:57;13.63;;;9.32;;
17261;SDS011;9873;52.236;21.002;2023-09-19T14:21:02;12.48;;;9.25;;
17261;SDS011;9873;52.236;21.002;2023-09-19T14:31:06;14.20;;;9.38;;
17261;SDS011;9873;52.236;21.002;2023-09-19T14:41:12;7.25;;;6.53;;
17261;SDS011;9873;52.236;21.002;2023-09-19T14:51:21;6.35;;;5.70;;
17261;SDS011;9873;52.236;21.002;2023-09-19T15:01:24;7.43;;;5.30;;
17261;SDS011;9873;52.236;21.002;2023-09-19T15:11:30;7.85;;;5.55;;
17261;SDS011;9873;52.236;21.002;2023-09-19T15:21:33;7.05;;;5.57;;
17261;SDS011;9873;52.236;21.002;2023-09-19T15:31:36;6.82;;;5.43;;
17261;SDS011;9873;52.236;21.002;2023-09-19T15:41:45;6.70;;;5.22;;
17261;SDS011;9873;52.236;21.002;2023-09-19T15:51:56;5.93;;;5.38;;
17261;SDS011;9873;52.236;21.002;2023-09-19T16:01:58;7.72;;;6.75;;
17261;SDS011;9873;52.236;21.002;2023-09-19T16:12:00;9.27;;;6.03;;
17261;SDS011;9873;52.236;21.002;2023-09-19T16:22:05;9.90;;;6.95;;
17261;SDS011;9873;52.236;21.002;2023-09-19T16:32:07;6.53;;;5.68;;
17261;SDS011;9873;52.236;21.002;2023-09-19T16:42:15;7.85;;;5.35;;
17261;SDS011;9873;52.236;21.002;2023-09-19T16:52:22;8.27;;;6.20;;
17261;SDS011;9873;52.236;21.002;2023-09-19T17:02:29;7.07;;;5.82;;
17261;SDS011;9873;52.236;21.002;2023-09-19T17:12:31;8.23;;;6.15;;
17261;SDS011;9873;52.236;21.002;2023-09-19T17:22:35;5.93;;;5.28;;
17261;SDS011;9873;52.236;21.002;2023-09-19T17:32:44;7.70;;;4.53;;
17261;SDS011;9873;52.236;21.002;2023-09-19T17:42:47;4.85;;;3.92;;
17261;SDS011;9873;52.236;21.002;2023-09-19T17:52:52;5.93;;;3.92;;
17261;SDS011;9873;52.236;21.002;2023-09-19T18:03:01;4.88;;;3.90;;
17261;SDS011;9873;52.236;21.002;2023-09-19T18:13:09;5.65;;;4.20;;
17261;SDS011;9873;52.236;21.002;2023-09-19T18:23:14;8.35;;;3.55;;
17261;SDS011;9873;52.236;21.002;2023-09-19T18:33:17;3.45;;;2.97;;
17261;SDS011;9873;52.236;21.002;2023-09-19T18:43:19;4.38;;;2.80;;
17261;SDS011;9873;52.236;21.002;2023-09-19T18:53:26;4.80;;;3.03;;
17261;SDS011;9873;52.236;21.002;2023-09-19T19:03:28;3.58;;;3.08;;
17261;SDS011;9873;52.236;21.002;2023-09-19T19:13:31;5.30;;;3.13;;
17261;SDS011;9873;52.236;21.002;2023-09-19T19:23:33;7.93;;;2.97;;
17261;SDS011;9873;52.236;21.002;2023-09-19T19:33:40;3.42;;;2.42;;
17261;SDS011;9873;52.236;21.002;2023-09-19T19:43:55;3.63;;;2.70;;
17261;SDS011;9873;52.236;21.002;2023-09-19T19:54:02;5.35;;;2.97;;
17261;SDS011;9873;52.236;21.002;2023-09-19T20:04:10;5.25;;;2.88;;
17261;SDS011;9873;52.236;21.002;2023-09-19T20:14:14;4.68;;;2.50;;
17261;SDS011;9873;52.236;21.002;2023-09-19T20:24:17;4.38;;;2.65;;
17261;SDS011;9873;52.236;21.002;2023-09-19T20:34:27;6.07;;;2.90;;
17261;SDS011;9873;52.236;21.002;2023-09-19T20:44:34;5.50;;;2.80;;
17261;SDS011;9873;52.236;21.002;2023-09-19T20:54:40;5.00;;;2.80;;
17261;SDS011;9873;52.236;21.002;2023-09-19T21:04:47;4.07;;;3.25;;
17261;SDS011;9873;52.236;21.002;2023-09-19T21:14:54;5.25;;;3.40;;
17261;SDS011;9873;52.236;21.002;2023-09-19T21:25:02;5.30;;;3.92;;
17261;SDS011;9873;52.236;21.002;2023-09-19T21:35:09;4.93;;;3.78;;
17261;SDS011;9873;52.236;21.002;2023-09-19T21:45:11;9.43;;;4.15;;
17261;SDS011;9873;52.236;21.002;2023-09-19T21:55:13;5.97;;;3.72;;
17261;SDS011;9873;52.236;21.002;2023-09-19T22:05:17;6.45;;;4.70;;
17261;SDS011;9873;52.236;21.002;2023-09-19T22:15:24;4.63;;;3.28;;
17261;SDS011;9873;52.236;21.002;2023-09-19T22:25:26;5.35;;;3.35;;
17261;SDS011;9873;52.236;21.002;2023-09-19T22:35:42;7.45;;;3.88;;
17261;SDS011;9873;52.236;21.002;2023-09-19T22:45:51;6.20;;;3.35;;
17261;SDS011;9873;52.236;21.002;2023-09-19T22:55:59;4.45;;;2.83;;
17261;SDS011;9873;52.236;21.002;2023-09-19T23:06:13;4.47;;;2.67;;
17261;SDS011;9873;52.236;21.002;2023-09-19T23:16:23;5.07;;;3.03;;
17261;SDS011;9873;52.236;21.002;2023-09-19T23:26:35;3.38;;;2.50;;
17261;SDS011;9873;52.236;21.002;2023-09-19T23:36:43;6.28;;;3.03;;
17261;SDS011;9873;52.236;21.002;2023-09-19T23:46:48;4.75;;;2.63;;
17261;SDS011;9873;52.236;21.002;2023-09-19T23:57:04;6.53;;;2.78;;
